sensor_id;sensor_type;location;lat;lon;timestamp;P1;durP1;ratioP1;P2;durP2;ratioP2
37409;SDS011;23275;48.914;12.566;2024-02-23T00:01:28;22.83;;;12.93;;
37409;SDS011;23275;48.914;12.566;2024-02-23T00:03:53;21.48;;;12.25;;
37409;SDS011;23275;48.914;12.566;2024-02-23T00:06:20;21.92;;;12.30;;
37409;SDS011;23275;48.914;12.566;2024-02-23T00:08:47;17.75;;;11.77;;
37409;SDS011;23275;48.914;12.566;2024-02-23T00:11:13;17.85;;;11.57;;
37409;SDS011;23275;48.914;12.566;2024-02-23T00:13:39;20.33;;;12.05;;
37409;SDS011;23275;48.914;12.566;2024-02-23T00:16:04;17.40;;;11.90;;
37409;SDS011;23275;48.914;12.566;2024-02-23T00:18:30;19.10;;;11.45;;
37409;SDS011;23275;48.914;12.566;2024-02-23T00:20:56;13.93;;;8.20;;
37409;SDS011;23275;48.914;12.566;2024-02-23T00:23:21;11.70;;;6.40;;
37409;SDS011;23275;48.914;12.566;2024-02-23T00:25:47;8.00;;;3.83;;
37409;SDS011;23275;48.914;12.566;2024-02-23T00:28:13;5.93;;;3.03;;
37409;SDS011;23275;48.914;12.566;2024-02-23T00:30:38;4.80;;;2.15;;
37409;SDS011;23275;48.914;12.566;2024-02-23T00:33:04;2.95;;;1.45;;
37409;SDS011;23275;48.914;12.566;2024-02-23T00:35:30;1.35;;;0.60;;
37409;SDS011;23275;48.914;12.566;2024-02-23T00:37:56;1.40;;;0.57;;
37409;SDS011;23275;48.914;12.566;2024-02-23T00:40:21;1.92;;;0.52;;
37409;SDS011;23275;48.914;12.566;2024-02-23T00:42:48;1.38;;;0.40;;
37409;SDS011;23275;48.914;12.566;2024-02-23T00:45:14;1.85;;;0.40;;
37409;SDS011;23275;48.914;12.566;2024-02-23T00:47:39;2.17;;;0.35;;
37409;SDS011;23275;48.914;12.566;2024-02-23T00:50:05;3.08;;;0.77;;
37409;SDS011;23275;48.914;12.566;2024-02-23T00:52:31;0.98;;;0.35;;
37409;SDS011;23275;48.914;12.566;2024-02-23T00:54:57;0.85;;;0.40;;
37409;SDS011;23275;48.914;12.566;2024-02-23T00:57:23;0.95;;;0.43;;
37409;SDS011;23275;48.914;12.566;2024-02-23T00:59:54;0.60;;;0.28;;
37409;SDS011;23275;48.914;12.566;2024-02-23T01:02:22;0.80;;;0.38;;
37409;SDS011;23275;48.914;12.566;2024-02-23T01:04:48;0.57;;;0.35;;
37409;SDS011;23275;48.914;12.566;2024-02-23T01:07:13;0.93;;;0.30;;
37409;SDS011;23275;48.914;12.566;2024-02-23T01:09:39;0.70;;;0.30;;
37409;SDS011;23275;48.914;12.566;2024-02-23T01:12:05;0.60;;;0.20;;
37409;SDS011;23275;48.914;12.566;2024-02-23T01:14:31;2.13;;;0.43;;
37409;SDS011;23275;48.914;12.566;2024-02-23T01:16:56;0.95;;;0.40;;
37409;SDS011;23275;48.914;12.566;2024-02-23T01:19:22;2.50;;;0.47;;
37409;SDS011;23275;48.914;12.566;2024-02-23T01:21:48;1.23;;;0.50;;
37409;SDS011;23275;48.914;12.566;2024-02-23T01:24:18;1.35;;;0.40;;
37409;SDS011;23275;48.914;12.566;2024-02-23T01:26:43;1.08;;;0.47;;
37409;SDS011;23275;48.914;12.566;2024-02-23T01:29:09;2.30;;;0.90;;
37409;SDS011;23275;48.914;12.566;2024-02-23T01:31:34;2.28;;;1.17;;
37409;SDS011;23275;48.914;12.566;2024-02-23T01:34:00;1.92;;;0.82;;
37409;SDS011;23275;48.914;12.566;2024-02-23T01:36:25;4.40;;;1.00;;
37409;SDS011;23275;48.914;12.566;2024-02-23T01:38:51;2.60;;;1.30;;
37409;SDS011;23275;48.914;12.566;2024-02-23T01:41:16;3.78;;;1.45;;
37409;SDS011;23275;48.914;12.566;2024-02-23T01:43:42;2.97;;;1.52;;
37409;SDS011;23275;48.914;12.566;2024-02-23T01:46:07;5.25;;;2.20;;
37409;SDS011;23275;48.914;12.566;2024-02-23T01:48:33;2.85;;;1.77;;
37409;SDS011;23275;48.914;12.566;2024-02-23T01:50:59;3.50;;;1.90;;
37409;SDS011;23275;48.914;12.566;2024-02-23T01:53:25;4.78;;;1.77;;
37409;SDS011;23275;48.914;12.566;2024-02-23T01:55:52;3.45;;;1.67;;
37409;SDS011;23275;48.914;12.566;2024-02-23T01:58:19;4.40;;;1.80;;
37409;SDS011;23275;48.914;12.566;2024-02-23T02:00:44;2.67;;;1.25;;
37409;SDS011;23275;48.914;12.566;2024-02-23T02:03:10;2.53;;;1.20;;
37409;SDS011;23275;48.914;12.566;2024-02-23T02:05:36;6.32;;;1.52;;
37409;SDS011;23275;48.914;12.566;2024-02-23T02:08:02;5.57;;;1.10;;
37409;SDS011;23275;48.914;12.566;2024-02-23T02:10:29;2.05;;;0.95;;
37409;SDS011;23275;48.914;12.566;2024-02-23T02:12:54;2.72;;;1.10;;
37409;SDS011;23275;48.914;12.566;2024-02-23T02:15:20;1.90;;;0.70;;
37409;SDS011;23275;48.914;12.566;2024-02-23T02:17:47;0.82;;;0.40;;
37409;SDS011;23275;48.914;12.566;2024-02-23T02:20:13;0.63;;;0.30;;
37409;SDS011;23275;48.914;12.566;2024-02-23T02:22:39;0.25;;;0.20;;
37409;SDS011;23275;48.914;12.566;2024-02-23T02:25:05;2.10;;;0.20;;
37409;SDS011;23275;48.914;12.566;2024-02-23T02:27:31;0.63;;;0.15;;
37409;SDS011;23275;48.914;12.566;2024-02-23T02:29:57;0.40;;;0.10;;
37409;SDS011;23275;48.914;12.566;2024-02-23T02:32:23;0.80;;;0.10;;
37409;SDS011;23275;48.914;12.566;2024-02-23T02:34:49;0.68;;;0.13;;
37409;SDS011;23275;48.914;12.566;2024-02-23T02:37:14;1.08;;;0.13;;
37409;SDS011;23275;48.914;12.566;2024-02-23T02:39:40;0.17;;;0.10;;
37409;SDS011;23275;48.914;12.566;2024-02-23T02:42:06;0.98;;;0.10;;
37409;SDS011;23275;48.914;12.566;2024-02-23T02:44:32;1.00;;;0.10;;
37409;SDS011;23275;48.914;12.566;2024-02-23T02:46:57;0.57;;;0.20;;
37409;SDS011;23275;48.914;12.566;2024-02-23T02:49:23;2.08;;;0.10;;
37409;SDS011;23275;48.914;12.566;2024-02-23T02:51:49;0.00;;;0.00;;
37409;SDS011;23275;48.914;12.566;2024-02-23T02:54:14;1.10;;;0.10;;
37409;SDS011;23275;48.914;12.566;2024-02-23T02:56:44;0.38;;;0.10;;
37409;SDS011;23275;48.914;12.566;2024-02-23T02:59:12;0.32;;;0.20;;
37409;SDS011;23275;48.914;12.566;2024-02-23T03:01:38;0.35;;;0.20;;
37409;SDS011;23275;48.914;12.566;2024-02-23T03:04:04;2.33;;;0.10;;
37409;SDS011;23275;48.914;12.566;2024-02-23T03:06:30;0.98;;;0.10;;
37409;SDS011;23275;48.914;12.566;2024-02-23T03:08:56;1.75;;;0.20;;
37409;SDS011;23275;48.914;12.566;2024-02-23T03:11:21;0.43;;;0.20;;
37409;SDS011;23275;48.914;12.566;2024-02-23T03:13:47;0.10;;;0.10;;
37409;SDS011;23275;48.914;12.566;2024-02-23T03:16:16;0.20;;;0.10;;
37409;SDS011;23275;48.914;12.566;2024-02-23T03:18:42;0.10;;;0.10;;
37409;SDS011;23275;48.914;12.566;2024-02-23T03:21:08;0.43;;;0.10;;
37409;SDS011;23275;48.914;12.566;2024-02-23T03:23:34;0.73;;;0.10;;
37409;SDS011;23275;48.914;12.566;2024-02-23T03:26:00;1.08;;;0.17;;
37409;SDS011;23275;48.914;12.566;2024-02-23T03:28:26;2.10;;;0.20;;
37409;SDS011;23275;48.914;12.566;2024-02-23T03:30:52;1.00;;;0.20;;
37409;SDS011;23275;48.914;12.566;2024-02-23T03:33:17;0.47;;;0.10;;
37409;SDS011;23275;48.914;12.566;2024-02-23T03:35:43;1.52;;;0.10;;
37409;SDS011;23275;48.914;12.566;2024-02-23T03:38:08;0.22;;;0.10;;
37409;SDS011;23275;48.914;12.566;2024-02-23T03:40:34;1.52;;;0.10;;
37409;SDS011;23275;48.914;12.566;2024-02-23T03:43:01;0.20;;;0.10;;
37409;SDS011;23275;48.914;12.566;2024-02-23T03:45:27;0.68;;;0.10;;
37409;SDS011;23275;48.914;12.566;2024-02-23T03:47:52;0.10;;;0.10;;
37409;SDS011;23275;48.914;12.566;2024-02-23T03:50:18;0.60;;;0.17;;
37409;SDS011;23275;48.914;12.566;2024-02-23T03:52:44;1.23;;;0.10;;
37409;SDS011;23275;48.914;12.566;2024-02-23T03:55:09;3.15;;;0.10;;
37409;SDS011;23275;48.914;12.566;2024-02-23T03:57:35;0.00;;;0.00;;
37409;SDS011;23275;48.914;12.566;2024-02-23T04:00:01;0.10;;;0.10;;
37409;SDS011;23275;48.914;12.566;2024-02-23T04:02:28;1.35;;;0.28;;
37409;SDS011;23275;48.914;12.566;2024-02-23T04:04:54;0.32;;;0.20;;
37409;SDS011;23275;48.914;12.566;2024-02-23T04:07:20;0.13;;;0.10;;
37409;SDS011;23275;48.914;12.566;2024-02-23T04:09:45;0.20;;;0.10;;
37409;SDS011;23275;48.914;12.566;2024-02-23T04:12:17;0.35;;;0.20;;
37409;SDS011;23275;48.914;12.566;2024-02-23T04:14:48;0.20;;;0.10;;
37409;SDS011;23275;48.914;12.566;2024-02-23T04:17:15;1.23;;;0.10;;
37409;SDS011;23275;48.914;12.566;2024-02-23T04:19:40;1.02;;;0.20;;
37409;SDS011;23275;48.914;12.566;2024-02-23T04:22:07;0.40;;;0.10;;
37409;SDS011;23275;48.914;12.566;2024-02-23T04:24:35;0.25;;;0.10;;
37409;SDS011;23275;48.914;12.566;2024-02-23T04:27:03;0.47;;;0.13;;
37409;SDS011;23275;48.914;12.566;2024-02-23T04:29:29;0.47;;;0.22;;
37409;SDS011;23275;48.914;12.566;2024-02-23T04:31:55;1.55;;;0.10;;
37409;SDS011;23275;48.914;12.566;2024-02-23T04:34:21;0.85;;;0.30;;
37409;SDS011;23275;48.914;12.566;2024-02-23T04:36:46;3.97;;;2.03;;
37409;SDS011;23275;48.914;12.566;2024-02-23T04:39:12;4.15;;;1.30;;
37409;SDS011;23275;48.914;12.566;2024-02-23T04:41:37;3.78;;;1.17;;
37409;SDS011;23275;48.914;12.566;2024-02-23T04:44:03;3.38;;;0.80;;
37409;SDS011;23275;48.914;12.566;2024-02-23T04:46:28;0.93;;;0.20;;
37409;SDS011;23275;48.914;12.566;2024-02-23T04:48:55;0.63;;;0.20;;
37409;SDS011;23275;48.914;12.566;2024-02-23T04:51:21;0.75;;;0.15;;
37409;SDS011;23275;48.914;12.566;2024-02-23T04:53:48;0.75;;;0.30;;
37409;SDS011;23275;48.914;12.566;2024-02-23T04:56:14;0.65;;;0.20;;
37409;SDS011;23275;48.914;12.566;2024-02-23T04:58:40;0.10;;;0.00;;
37409;SDS011;23275;48.914;12.566;2024-02-23T05:01:07;0.15;;;0.08;;
37409;SDS011;23275;48.914;12.566;2024-02-23T05:03:32;0.75;;;0.13;;
37409;SDS011;23275;48.914;12.566;2024-02-23T05:05:58;0.20;;;0.10;;
37409;SDS011;23275;48.914;12.566;2024-02-23T05:08:23;0.03;;;0.00;;
37409;SDS011;23275;48.914;12.566;2024-02-23T05:10:49;0.65;;;0.10;;
37409;SDS011;23275;48.914;12.566;2024-02-23T05:13:15;2.03;;;0.32;;
37409;SDS011;23275;48.914;12.566;2024-02-23T05:15:41;0.40;;;0.20;;
37409;SDS011;23275;48.914;12.566;2024-02-23T05:18:07;1.33;;;0.10;;
37409;SDS011;23275;48.914;12.566;2024-02-23T05:20:32;2.80;;;0.20;;
37409;SDS011;23275;48.914;12.566;2024-02-23T05:22:58;0.65;;;0.10;;
37409;SDS011;23275;48.914;12.566;2024-02-23T05:25:23;1.15;;;0.20;;
37409;SDS011;23275;48.914;12.566;2024-02-23T05:27:51;0.13;;;0.10;;
37409;SDS011;23275;48.914;12.566;2024-02-23T05:30:16;0.75;;;0.30;;
37409;SDS011;23275;48.914;12.566;2024-02-23T05:32:42;2.80;;;1.33;;
37409;SDS011;23275;48.914;12.566;2024-02-23T05:35:07;7.22;;;2.95;;
37409;SDS011;23275;48.914;12.566;2024-02-23T05:37:34;1.33;;;0.30;;
37409;SDS011;23275;48.914;12.566;2024-02-23T05:40:03;3.40;;;0.90;;
37409;SDS011;23275;48.914;12.566;2024-02-23T05:42:35;2.97;;;1.00;;
37409;SDS011;23275;48.914;12.566;2024-02-23T05:45:04;1.23;;;0.57;;
37409;SDS011;23275;48.914;12.566;2024-02-23T05:47:34;0.95;;;0.32;;
37409;SDS011;23275;48.914;12.566;2024-02-23T05:50:01;1.58;;;0.20;;
37409;SDS011;23275;48.914;12.566;2024-02-23T05:52:28;0.75;;;0.10;;
37409;SDS011;23275;48.914;12.566;2024-02-23T05:54:54;0.80;;;0.20;;
37409;SDS011;23275;48.914;12.566;2024-02-23T05:57:21;3.55;;;0.20;;
37409;SDS011;23275;48.914;12.566;2024-02-23T05:59:46;0.45;;;0.20;;
37409;SDS011;23275;48.914;12.566;2024-02-23T06:02:12;0.55;;;0.20;;
37409;SDS011;23275;48.914;12.566;2024-02-23T06:04:39;1.17;;;0.28;;
37409;SDS011;23275;48.914;12.566;2024-02-23T06:07:05;0.28;;;0.20;;
37409;SDS011;23275;48.914;12.566;2024-02-23T06:09:31;1.40;;;0.20;;
37409;SDS011;23275;48.914;12.566;2024-02-23T06:11:56;1.15;;;0.45;;
37409;SDS011;23275;48.914;12.566;2024-02-23T06:14:22;1.77;;;0.40;;
37409;SDS011;23275;48.914;12.566;2024-02-23T06:16:48;1.75;;;0.50;;
37409;SDS011;23275;48.914;12.566;2024-02-23T06:19:14;2.47;;;0.52;;
37409;SDS011;23275;48.914;12.566;2024-02-23T06:21:40;3.00;;;0.60;;
37409;SDS011;23275;48.914;12.566;2024-02-23T06:24:06;0.75;;;0.50;;
37409;SDS011;23275;48.914;12.566;2024-02-23T06:26:33;3.17;;;0.45;;
37409;SDS011;23275;48.914;12.566;2024-02-23T06:28:59;2.20;;;0.40;;
37409;SDS011;23275;48.914;12.566;2024-02-23T06:31:25;2.50;;;0.30;;
37409;SDS011;23275;48.914;12.566;2024-02-23T06:33:50;2.42;;;0.50;;
37409;SDS011;23275;48.914;12.566;2024-02-23T06:36:16;1.45;;;0.38;;
37409;SDS011;23275;48.914;12.566;2024-02-23T06:38:43;2.08;;;0.30;;
37409;SDS011;23275;48.914;12.566;2024-02-23T06:41:10;2.47;;;0.30;;
37409;SDS011;23275;48.914;12.566;2024-02-23T06:43:36;1.50;;;0.57;;
37409;SDS011;23275;48.914;12.566;2024-02-23T06:46:06;1.35;;;0.30;;
37409;SDS011;23275;48.914;12.566;2024-02-23T06:48:33;0.63;;;0.30;;
37409;SDS011;23275;48.914;12.566;2024-02-23T06:50:59;3.58;;;0.40;;
37409;SDS011;23275;48.914;12.566;2024-02-23T06:53:25;3.50;;;0.40;;
37409;SDS011;23275;48.914;12.566;2024-02-23T06:55:50;3.03;;;0.30;;
37409;SDS011;23275;48.914;12.566;2024-02-23T06:58:16;0.95;;;0.30;;
37409;SDS011;23275;48.914;12.566;2024-02-23T07:00:43;2.42;;;0.45;;
37409;SDS011;23275;48.914;12.566;2024-02-23T07:03:09;1.27;;;0.30;;
37409;SDS011;23275;48.914;12.566;2024-02-23T07:05:34;1.17;;;0.25;;
37409;SDS011;23275;48.914;12.566;2024-02-23T07:08:00;2.08;;;0.20;;
37409;SDS011;23275;48.914;12.566;2024-02-23T07:10:26;2.35;;;0.28;;
37409;SDS011;23275;48.914;12.566;2024-02-23T07:12:52;0.50;;;0.20;;
37409;SDS011;23275;48.914;12.566;2024-02-23T07:17:49;0.75;;;0.30;;
37409;SDS011;23275;48.914;12.566;2024-02-23T07:20:15;0.73;;;0.20;;
37409;SDS011;23275;48.914;12.566;2024-02-23T07:22:43;1.95;;;0.30;;
37409;SDS011;23275;48.914;12.566;2024-02-23T07:25:10;4.15;;;0.20;;
37409;SDS011;23275;48.914;12.566;2024-02-23T07:27:36;1.38;;;0.30;;
37409;SDS011;23275;48.914;12.566;2024-02-23T07:30:02;0.93;;;0.20;;
37409;SDS011;23275;48.914;12.566;2024-02-23T07:32:30;2.88;;;1.10;;
37409;SDS011;23275;48.914;12.566;2024-02-23T07:34:56;3.60;;;0.40;;
37409;SDS011;23275;48.914;12.566;2024-02-23T07:37:21;2.28;;;0.60;;
37409;SDS011;23275;48.914;12.566;2024-02-23T07:39:47;2.70;;;0.60;;
37409;SDS011;23275;48.914;12.566;2024-02-23T07:42:13;3.38;;;0.90;;
37409;SDS011;23275;48.914;12.566;2024-02-23T07:44:43;0.95;;;0.25;;
37409;SDS011;23275;48.914;12.566;2024-02-23T07:47:09;1.65;;;0.20;;
37409;SDS011;23275;48.914;12.566;2024-02-23T07:49:36;2.17;;;0.20;;
37409;SDS011;23275;48.914;12.566;2024-02-23T07:52:02;1.05;;;0.40;;
37409;SDS011;23275;48.914;12.566;2024-02-23T07:54:28;0.40;;;0.20;;
37409;SDS011;23275;48.914;12.566;2024-02-23T07:56:54;22.50;;;10.50;;
37409;SDS011;23275;48.914;12.566;2024-02-23T07:59:19;2.78;;;0.85;;
37409;SDS011;23275;48.914;12.566;2024-02-23T08:01:45;2.63;;;0.52;;
37409;SDS011;23275;48.914;12.566;2024-02-23T08:04:11;1.58;;;0.80;;
37409;SDS011;23275;48.914;12.566;2024-02-23T08:06:38;1.15;;;0.22;;
37409;SDS011;23275;48.914;12.566;2024-02-23T08:09:04;0.28;;;0.17;;
37409;SDS011;23275;48.914;12.566;2024-02-23T08:11:30;0.77;;;0.20;;
37409;SDS011;23275;48.914;12.566;2024-02-23T08:13:55;1.30;;;0.20;;
37409;SDS011;23275;48.914;12.566;2024-02-23T08:16:21;3.30;;;0.30;;
37409;SDS011;23275;48.914;12.566;2024-02-23T08:18:46;1.30;;;0.30;;
37409;SDS011;23275;48.914;12.566;2024-02-23T08:21:12;0.70;;;0.30;;
37409;SDS011;23275;48.914;12.566;2024-02-23T08:23:38;2.22;;;0.40;;
37409;SDS011;23275;48.914;12.566;2024-02-23T08:26:04;2.08;;;0.63;;
37409;SDS011;23275;48.914;12.566;2024-02-23T08:28:29;3.28;;;0.85;;
37409;SDS011;23275;48.914;12.566;2024-02-23T08:30:55;1.00;;;0.50;;
37409;SDS011;23275;48.914;12.566;2024-02-23T08:33:20;1.52;;;0.50;;
37409;SDS011;23275;48.914;12.566;2024-02-23T08:35:46;3.20;;;0.88;;
37409;SDS011;23275;48.914;12.566;2024-02-23T08:38:13;0.28;;;0.20;;
37409;SDS011;23275;48.914;12.566;2024-02-23T08:40:39;1.42;;;0.50;;
37409;SDS011;23275;48.914;12.566;2024-02-23T08:43:04;0.90;;;0.30;;
37409;SDS011;23275;48.914;12.566;2024-02-23T08:45:30;2.55;;;0.40;;
37409;SDS011;23275;48.914;12.566;2024-02-23T08:47:56;3.03;;;0.55;;
37409;SDS011;23275;48.914;12.566;2024-02-23T08:50:21;1.55;;;0.47;;
37409;SDS011;23275;48.914;12.566;2024-02-23T08:52:47;1.65;;;0.50;;
37409;SDS011;23275;48.914;12.566;2024-02-23T08:55:12;0.95;;;0.40;;
37409;SDS011;23275;48.914;12.566;2024-02-23T08:57:38;2.55;;;0.60;;
37409;SDS011;23275;48.914;12.566;2024-02-23T09:00:04;2.30;;;0.63;;
37409;SDS011;23275;48.914;12.566;2024-02-23T09:02:30;4.28;;;0.82;;
37409;SDS011;23275;48.914;12.566;2024-02-23T09:04:57;2.28;;;0.32;;
37409;SDS011;23275;48.914;12.566;2024-02-23T09:07:23;3.25;;;1.20;;
37409;SDS011;23275;48.914;12.566;2024-02-23T09:09:49;5.97;;;2.13;;
37409;SDS011;23275;48.914;12.566;2024-02-23T09:12:15;1.15;;;0.30;;
37409;SDS011;23275;48.914;12.566;2024-02-23T09:14:44;5.57;;;1.45;;
37409;SDS011;23275;48.914;12.566;2024-02-23T09:17:11;3.65;;;0.70;;
37409;SDS011;23275;48.914;12.566;2024-02-23T09:19:37;0.65;;;0.25;;
37409;SDS011;23275;48.914;12.566;2024-02-23T09:22:03;1.45;;;0.45;;
37409;SDS011;23275;48.914;12.566;2024-02-23T09:24:29;1.23;;;0.43;;
37409;SDS011;23275;48.914;12.566;2024-02-23T09:26:54;1.33;;;0.40;;
37409;SDS011;23275;48.914;12.566;2024-02-23T09:29:20;0.55;;;0.20;;
37409;SDS011;23275;48.914;12.566;2024-02-23T09:31:46;2.33;;;0.35;;
37409;SDS011;23275;48.914;12.566;2024-02-23T09:34:12;1.70;;;0.40;;
37409;SDS011;23275;48.914;12.566;2024-02-23T09:36:38;2.05;;;0.40;;
37409;SDS011;23275;48.914;12.566;2024-02-23T09:39:04;1.38;;;0.38;;
37409;SDS011;23275;48.914;12.566;2024-02-23T09:41:30;1.35;;;0.20;;
37409;SDS011;23275;48.914;12.566;2024-02-23T09:43:58;2.28;;;0.60;;
37409;SDS011;23275;48.914;12.566;2024-02-23T09:46:26;4.75;;;1.25;;
37409;SDS011;23275;48.914;12.566;2024-02-23T09:48:51;3.35;;;0.70;;
37409;SDS011;23275;48.914;12.566;2024-02-23T09:51:18;2.60;;;0.77;;
37409;SDS011;23275;48.914;12.566;2024-02-23T09:53:45;3.75;;;1.80;;
37409;SDS011;23275;48.914;12.566;2024-02-23T09:56:14;5.85;;;2.10;;
37409;SDS011;23275;48.914;12.566;2024-02-23T09:58:42;9.45;;;4.03;;
37409;SDS011;23275;48.914;12.566;2024-02-23T10:01:08;7.70;;;3.15;;
37409;SDS011;23275;48.914;12.566;2024-02-23T10:03:37;4.00;;;1.50;;
37409;SDS011;23275;48.914;12.566;2024-02-23T10:06:03;3.78;;;1.02;;
37409;SDS011;23275;48.914;12.566;2024-02-23T10:08:29;4.35;;;1.13;;
37409;SDS011;23275;48.914;12.566;2024-02-23T10:10:55;3.13;;;1.15;;
37409;SDS011;23275;48.914;12.566;2024-02-23T10:13:22;8.63;;;3.28;;
37409;SDS011;23275;48.914;12.566;2024-02-23T10:15:51;11.10;;;3.90;;
37409;SDS011;23275;48.914;12.566;2024-02-23T10:18:17;13.05;;;5.00;;
37409;SDS011;23275;48.914;12.566;2024-02-23T10:20:44;8.02;;;3.40;;
37409;SDS011;23275;48.914;12.566;2024-02-23T10:23:15;11.73;;;3.67;;
37409;SDS011;23275;48.914;12.566;2024-02-23T10:25:40;10.80;;;4.35;;
37409;SDS011;23275;48.914;12.566;2024-02-23T10:28:06;5.68;;;1.55;;
37409;SDS011;23275;48.914;12.566;2024-02-23T10:30:32;12.63;;;4.80;;
37409;SDS011;23275;48.914;12.566;2024-02-23T10:32:58;6.95;;;1.30;;
37409;SDS011;23275;48.914;12.566;2024-02-23T10:35:25;6.15;;;1.10;;
37409;SDS011;23275;48.914;12.566;2024-02-23T10:37:52;2.80;;;0.60;;
37409;SDS011;23275;48.914;12.566;2024-02-23T10:40:20;4.45;;;0.95;;
37409;SDS011;23275;48.914;12.566;2024-02-23T10:42:48;1.35;;;0.50;;
37409;SDS011;23275;48.914;12.566;2024-02-23T10:45:19;7.38;;;1.83;;
37409;SDS011;23275;48.914;12.566;2024-02-23T10:47:50;8.32;;;2.55;;
37409;SDS011;23275;48.914;12.566;2024-02-23T10:50:16;4.63;;;1.75;;
37409;SDS011;23275;48.914;12.566;2024-02-23T10:52:44;15.00;;;5.35;;
37409;SDS011;23275;48.914;12.566;2024-02-23T10:55:11;6.63;;;1.65;;
37409;SDS011;23275;48.914;12.566;2024-02-23T10:57:39;4.53;;;1.70;;
37409;SDS011;23275;48.914;12.566;2024-02-23T11:00:04;9.93;;;2.67;;
37409;SDS011;23275;48.914;12.566;2024-02-23T11:02:35;15.65;;;6.28;;
37409;SDS011;23275;48.914;12.566;2024-02-23T11:05:04;8.75;;;2.65;;
37409;SDS011;23275;48.914;12.566;2024-02-23T11:07:31;9.90;;;2.20;;
37409;SDS011;23275;48.914;12.566;2024-02-23T11:09:58;7.40;;;1.83;;
37409;SDS011;23275;48.914;12.566;2024-02-23T11:12:25;6.80;;;2.05;;
37409;SDS011;23275;48.914;12.566;2024-02-23T11:14:57;3.45;;;1.38;;
37409;SDS011;23275;48.914;12.566;2024-02-23T11:17:26;8.00;;;2.30;;
37409;SDS011;23275;48.914;12.566;2024-02-23T11:19:54;9.68;;;4.05;;
37409;SDS011;23275;48.914;12.566;2024-02-23T11:22:26;6.00;;;2.78;;
37409;SDS011;23275;48.914;12.566;2024-02-23T11:24:59;2.85;;;0.70;;
37409;SDS011;23275;48.914;12.566;2024-02-23T11:27:35;5.63;;;1.42;;
37409;SDS011;23275;48.914;12.566;2024-02-23T11:30:05;6.03;;;2.20;;
37409;SDS011;23275;48.914;12.566;2024-02-23T11:32:40;5.90;;;2.00;;
37409;SDS011;23275;48.914;12.566;2024-02-23T11:35:07;2.53;;;0.77;;
37409;SDS011;23275;48.914;12.566;2024-02-23T11:37:43;1.27;;;0.20;;
37409;SDS011;23275;48.914;12.566;2024-02-23T11:40:11;7.35;;;2.72;;
37409;SDS011;23275;48.914;12.566;2024-02-23T11:42:38;6.05;;;1.45;;
37409;SDS011;23275;48.914;12.566;2024-02-23T11:45:06;0.20;;;0.20;;
37409;SDS011;23275;48.914;12.566;2024-02-23T11:47:32;3.83;;;0.45;;
37409;SDS011;23275;48.914;12.566;2024-02-23T11:49:58;1.15;;;0.20;;
37409;SDS011;23275;48.914;12.566;2024-02-23T11:52:23;2.47;;;0.30;;
37409;SDS011;23275;48.914;12.566;2024-02-23T11:54:49;3.08;;;0.45;;
37409;SDS011;23275;48.914;12.566;2024-02-23T11:57:15;2.28;;;0.30;;
37409;SDS011;23275;48.914;12.566;2024-02-23T11:59:41;0.85;;;0.28;;
37409;SDS011;23275;48.914;12.566;2024-02-23T12:02:06;1.45;;;0.38;;
37409;SDS011;23275;48.914;12.566;2024-02-23T12:04:32;0.77;;;0.22;;
37409;SDS011;23275;48.914;12.566;2024-02-23T12:06:58;2.35;;;0.50;;
37409;SDS011;23275;48.914;12.566;2024-02-23T12:09:25;1.10;;;0.38;;
37409;SDS011;23275;48.914;12.566;2024-02-23T12:11:51;1.35;;;0.50;;
37409;SDS011;23275;48.914;12.566;2024-02-23T12:14:17;0.63;;;0.30;;
37409;SDS011;23275;48.914;12.566;2024-02-23T12:16:42;2.50;;;0.60;;
37409;SDS011;23275;48.914;12.566;2024-02-23T12:19:08;1.10;;;0.30;;
37409;SDS011;23275;48.914;12.566;2024-02-23T12:21:34;1.13;;;0.30;;
37409;SDS011;23275;48.914;12.566;2024-02-23T12:24:05;1.10;;;0.32;;
37409;SDS011;23275;48.914;12.566;2024-02-23T12:26:32;0.65;;;0.30;;
37409;SDS011;23275;48.914;12.566;2024-02-23T12:29:01;1.98;;;0.50;;
37409;SDS011;23275;48.914;12.566;2024-02-23T12:31:27;1.45;;;0.30;;
37409;SDS011;23275;48.914;12.566;2024-02-23T12:33:53;1.98;;;0.40;;
37409;SDS011;23275;48.914;12.566;2024-02-23T12:36:21;1.08;;;0.20;;
37409;SDS011;23275;48.914;12.566;2024-02-23T12:38:48;0.93;;;0.43;;
37409;SDS011;23275;48.914;12.566;2024-02-23T12:41:14;1.15;;;0.40;;
37409;SDS011;23275;48.914;12.566;2024-02-23T12:43:39;0.85;;;0.50;;
37409;SDS011;23275;48.914;12.566;2024-02-23T12:46:05;1.45;;;0.30;;
37409;SDS011;23275;48.914;12.566;2024-02-23T12:48:33;0.70;;;0.20;;
37409;SDS011;23275;48.914;12.566;2024-02-23T12:50:58;0.52;;;0.10;;
37409;SDS011;23275;48.914;12.566;2024-02-23T12:53:37;0.85;;;0.38;;
37409;SDS011;23275;48.914;12.566;2024-02-23T12:56:10;0.40;;;0.20;;
37409;SDS011;23275;48.914;12.566;2024-02-23T12:58:39;1.20;;;0.35;;
37409;SDS011;23275;48.914;12.566;2024-02-23T13:01:05;0.63;;;0.20;;
37409;SDS011;23275;48.914;12.566;2024-02-23T13:03:32;1.38;;;0.30;;
37409;SDS011;23275;48.914;12.566;2024-02-23T13:05:58;0.40;;;0.17;;
37409;SDS011;23275;48.914;12.566;2024-02-23T13:08:24;2.70;;;0.30;;
37409;SDS011;23275;48.914;12.566;2024-02-23T13:10:51;1.10;;;0.30;;
37409;SDS011;23275;48.914;12.566;2024-02-23T13:13:17;1.33;;;0.38;;
37409;SDS011;23275;48.914;12.566;2024-02-23T13:15:44;0.93;;;0.30;;
37409;SDS011;23275;48.914;12.566;2024-02-23T13:18:10;2.50;;;0.50;;
37409;SDS011;23275;48.914;12.566;2024-02-23T13:20:36;0.52;;;0.20;;
37409;SDS011;23275;48.914;12.566;2024-02-23T13:23:02;2.67;;;0.65;;
37409;SDS011;23275;48.914;12.566;2024-02-23T13:25:28;3.53;;;0.40;;
37409;SDS011;23275;48.914;12.566;2024-02-23T13:27:54;1.25;;;0.47;;
37409;SDS011;23275;48.914;12.566;2024-02-23T13:30:19;0.88;;;0.25;;
37409;SDS011;23275;48.914;12.566;2024-02-23T13:32:45;0.88;;;0.30;;
37409;SDS011;23275;48.914;12.566;2024-02-23T13:35:10;0.57;;;0.28;;
37409;SDS011;23275;48.914;12.566;2024-02-23T13:37:36;2.22;;;0.38;;
37409;SDS011;23275;48.914;12.566;2024-02-23T13:40:02;1.70;;;0.30;;
37409;SDS011;23275;48.914;12.566;2024-02-23T13:42:30;0.93;;;0.30;;
37409;SDS011;23275;48.914;12.566;2024-02-23T13:44:56;2.50;;;0.50;;
37409;SDS011;23275;48.914;12.566;2024-02-23T13:47:22;0.93;;;0.40;;
37409;SDS011;23275;48.914;12.566;2024-02-23T13:49:47;1.90;;;0.50;;
37409;SDS011;23275;48.914;12.566;2024-02-23T13:52:13;1.33;;;0.28;;
37409;SDS011;23275;48.914;12.566;2024-02-23T13:54:38;0.47;;;0.43;;
37409;SDS011;23275;48.914;12.566;2024-02-23T13:57:04;1.80;;;0.30;;
37409;SDS011;23275;48.914;12.566;2024-02-23T13:59:29;1.50;;;0.50;;
37409;SDS011;23275;48.914;12.566;2024-02-23T14:01:55;2.90;;;0.50;;
37409;SDS011;23275;48.914;12.566;2024-02-23T14:04:21;5.93;;;1.33;;
37409;SDS011;23275;48.914;12.566;2024-02-23T14:06:46;1.95;;;0.80;;
37409;SDS011;23275;48.914;12.566;2024-02-23T14:09:12;2.10;;;0.40;;
37409;SDS011;23275;48.914;12.566;2024-02-23T14:11:38;1.58;;;0.55;;
37409;SDS011;23275;48.914;12.566;2024-02-23T14:14:05;1.05;;;0.40;;
37409;SDS011;23275;48.914;12.566;2024-02-23T14:16:31;0.68;;;0.30;;
37409;SDS011;23275;48.914;12.566;2024-02-23T14:18:56;2.17;;;0.30;;
37409;SDS011;23275;48.914;12.566;2024-02-23T14:21:22;2.35;;;0.50;;
37409;SDS011;23275;48.914;12.566;2024-02-23T14:23:50;2.92;;;0.40;;
37409;SDS011;23275;48.914;12.566;2024-02-23T14:26:16;1.05;;;0.40;;
37409;SDS011;23275;48.914;12.566;2024-02-23T14:28:41;1.42;;;0.20;;
37409;SDS011;23275;48.914;12.566;2024-02-23T14:31:07;0.50;;;0.28;;